sensor_id;sensor_type;location;lat;lon;timestamp;P1;durP1;ratioP1;P2;durP2;ratioP2
8887;SDS011;4480;52.370;9.748;2023-07-13T00:01:26;4.27;;;2.20;;
8887;SDS011;4480;52.370;9.748;2023-07-13T00:03:54;3.03;;;2.57;;
8887;SDS011;4480;52.370;9.748;2023-07-13T00:06:21;5.77;;;2.03;;
8887;SDS011;4480;52.370;9.748;2023-07-13T00:08:47;4.67;;;2.13;;
8887;SDS011;4480;52.370;9.748;2023-07-13T00:11:15;3.50;;;1.90;;
8887;SDS011;4480;52.370;9.748;2023-07-13T00:13:42;3.20;;;2.67;;
8887;SDS011;4480;52.370;9.748;2023-07-13T00:16:11;6.27;;;3.37;;
8887;SDS011;4480;52.370;9.748;2023-07-13T00:18:39;2.83;;;2.30;;
8887;SDS011;4480;52.370;9.748;2023-07-13T00:21:06;6.17;;;3.23;;
8887;SDS011;4480;52.370;9.748;2023-07-13T00:23:33;6.07;;;3.30;;
8887;SDS011;4480;52.370;9.748;2023-07-13T00:26:00;4.20;;;2.30;;
8887;SDS011;4480;52.370;9.748;2023-07-13T00:28:28;2.77;;;2.53;;
8887;SDS011;4480;52.370;9.748;2023-07-13T00:30:54;5.50;;;2.67;;
8887;SDS011;4480;52.370;9.748;2023-07-13T00:33:22;3.30;;;3.00;;
8887;SDS011;4480;52.370;9.748;2023-07-13T00:35:49;3.50;;;3.20;;
8887;SDS011;4480;52.370;9.748;2023-07-13T00:38:16;3.70;;;3.10;;
8887;SDS011;4480;52.370;9.748;2023-07-13T00:40:43;5.63;;;2.87;;
8887;SDS011;4480;52.370;9.748;2023-07-13T00:43:12;3.23;;;2.40;;
8887;SDS011;4480;52.370;9.748;2023-07-13T00:48:39;4.43;;;2.77;;
8887;SDS011;4480;52.370;9.748;2023-07-13T00:51:07;2.40;;;2.20;;
8887;SDS011;4480;52.370;9.748;2023-07-13T00:53:34;4.80;;;2.73;;
8887;SDS011;4480;52.370;9.748;2023-07-13T00:56:01;3.90;;;2.90;;
8887;SDS011;4480;52.370;9.748;2023-07-13T00:58:29;4.53;;;2.87;;
8887;SDS011;4480;52.370;9.748;2023-07-13T01:00:56;4.07;;;2.67;;
8887;SDS011;4480;52.370;9.748;2023-07-13T01:03:23;3.47;;;3.13;;
8887;SDS011;4480;52.370;9.748;2023-07-13T01:05:51;6.83;;;3.07;;
8887;SDS011;4480;52.370;9.748;2023-07-13T01:08:19;4.03;;;3.30;;
8887;SDS011;4480;52.370;9.748;2023-07-13T01:10:53;4.53;;;3.13;;
8887;SDS011;4480;52.370;9.748;2023-07-13T01:13:20;3.23;;;2.93;;
8887;SDS011;4480;52.370;9.748;2023-07-13T01:15:48;5.57;;;3.90;;
8887;SDS011;4480;52.370;9.748;2023-07-13T01:18:18;3.67;;;3.37;;
8887;SDS011;4480;52.370;9.748;2023-07-13T01:20:51;4.60;;;2.80;;
8887;SDS011;4480;52.370;9.748;2023-07-13T01:23:19;3.67;;;2.60;;
8887;SDS011;4480;52.370;9.748;2023-07-13T01:25:46;3.63;;;2.60;;
8887;SDS011;4480;52.370;9.748;2023-07-13T01:28:13;4.20;;;3.10;;
8887;SDS011;4480;52.370;9.748;2023-07-13T01:30:42;3.33;;;3.03;;
8887;SDS011;4480;52.370;9.748;2023-07-13T01:33:10;3.73;;;2.90;;
8887;SDS011;4480;52.370;9.748;2023-07-13T01:35:38;4.73;;;3.50;;
8887;SDS011;4480;52.370;9.748;2023-07-13T01:38:06;3.33;;;3.03;;
8887;SDS011;4480;52.370;9.748;2023-07-13T01:40:33;4.00;;;2.93;;
8887;SDS011;4480;52.370;9.748;2023-07-13T01:43:01;6.53;;;3.20;;
8887;SDS011;4480;52.370;9.748;2023-07-13T01:45:28;3.40;;;3.10;;
8887;SDS011;4480;52.370;9.748;2023-07-13T01:47:57;4.03;;;2.97;;
8887;SDS011;4480;52.370;9.748;2023-07-13T01:50:24;4.13;;;3.37;;
8887;SDS011;4480;52.370;9.748;2023-07-13T01:52:51;3.93;;;2.63;;
8887;SDS011;4480;52.370;9.748;2023-07-13T01:55:19;4.73;;;2.87;;
8887;SDS011;4480;52.370;9.748;2023-07-13T01:57:47;2.93;;;2.63;;
8887;SDS011;4480;52.370;9.748;2023-07-13T02:00:14;4.43;;;2.70;;
8887;SDS011;4480;52.370;9.748;2023-07-13T02:02:41;3.20;;;2.90;;
8887;SDS011;4480;52.370;9.748;2023-07-13T02:05:09;6.73;;;3.10;;
8887;SDS011;4480;52.370;9.748;2023-07-13T02:07:36;5.40;;;3.00;;
8887;SDS011;4480;52.370;9.748;2023-07-13T02:10:03;5.60;;;3.37;;
8887;SDS011;4480;52.370;9.748;2023-07-13T02:12:32;3.50;;;2.80;;
8887;SDS011;4480;52.370;9.748;2023-07-13T02:14:59;3.27;;;2.57;;
8887;SDS011;4480;52.370;9.748;2023-07-13T02:17:26;3.97;;;3.40;;
8887;SDS011;4480;52.370;9.748;2023-07-13T02:19:53;3.00;;;2.70;;
8887;SDS011;4480;52.370;9.748;2023-07-13T02:22:20;2.97;;;2.67;;
8887;SDS011;4480;52.370;9.748;2023-07-13T02:24:47;4.07;;;3.10;;
8887;SDS011;4480;52.370;9.748;2023-07-13T02:27:14;2.77;;;2.57;;
8887;SDS011;4480;52.370;9.748;2023-07-13T02:29:42;5.03;;;3.07;;
8887;SDS011;4480;52.370;9.748;2023-07-13T02:32:09;6.37;;;3.33;;
8887;SDS011;4480;52.370;9.748;2023-07-13T02:34:36;2.97;;;2.67;;
8887;SDS011;4480;52.370;9.748;2023-07-13T02:37:03;3.80;;;2.80;;
8887;SDS011;4480;52.370;9.748;2023-07-13T02:39:30;4.43;;;3.10;;
8887;SDS011;4480;52.370;9.748;2023-07-13T02:41:58;6.53;;;3.73;;
8887;SDS011;4480;52.370;9.748;2023-07-13T02:44:24;3.97;;;2.93;;
8887;SDS011;4480;52.370;9.748;2023-07-13T02:46:53;6.70;;;3.03;;
8887;SDS011;4480;52.370;9.748;2023-07-13T02:49:20;6.73;;;2.80;;
8887;SDS011;4480;52.370;9.748;2023-07-13T02:51:47;4.70;;;2.90;;
8887;SDS011;4480;52.370;9.748;2023-07-13T02:54:13;4.83;;;2.90;;
8887;SDS011;4480;52.370;9.748;2023-07-13T02:56:40;7.43;;;3.50;;
8887;SDS011;4480;52.370;9.748;2023-07-13T02:59:08;3.20;;;2.47;;
8887;SDS011;4480;52.370;9.748;2023-07-13T03:01:35;6.27;;;3.40;;
8887;SDS011;4480;52.370;9.748;2023-07-13T03:04:03;4.23;;;2.83;;
8887;SDS011;4480;52.370;9.748;2023-07-13T03:06:30;4.70;;;2.73;;
8887;SDS011;4480;52.370;9.748;2023-07-13T03:08:57;4.13;;;3.20;;
8887;SDS011;4480;52.370;9.748;2023-07-13T03:11:25;4.13;;;3.13;;
8887;SDS011;4480;52.370;9.748;2023-07-13T03:13:52;7.57;;;3.37;;
8887;SDS011;4480;52.370;9.748;2023-07-13T03:16:18;4.00;;;3.10;;
8887;SDS011;4480;52.370;9.748;2023-07-13T03:18:46;7.13;;;3.17;;
8887;SDS011;4480;52.370;9.748;2023-07-13T03:21:14;3.33;;;2.80;;
8887;SDS011;4480;52.370;9.748;2023-07-13T03:23:41;3.83;;;3.47;;
8887;SDS011;4480;52.370;9.748;2023-07-13T03:26:10;5.93;;;3.00;;
8887;SDS011;4480;52.370;9.748;2023-07-13T03:28:39;7.47;;;2.80;;
8887;SDS011;4480;52.370;9.748;2023-07-13T03:31:07;5.17;;;2.70;;
8887;SDS011;4480;52.370;9.748;2023-07-13T03:33:35;4.10;;;3.10;;
8887;SDS011;4480;52.370;9.748;2023-07-13T03:36:02;3.33;;;3.00;;
8887;SDS011;4480;52.370;9.748;2023-07-13T03:38:31;3.50;;;2.70;;
8887;SDS011;4480;52.370;9.748;2023-07-13T03:40:58;6.40;;;3.27;;
8887;SDS011;4480;52.370;9.748;2023-07-13T03:43:26;7.30;;;4.20;;
8887;SDS011;4480;52.370;9.748;2023-07-13T03:45:53;4.57;;;3.23;;
8887;SDS011;4480;52.370;9.748;2023-07-13T03:48:19;4.97;;;3.13;;
8887;SDS011;4480;52.370;9.748;2023-07-13T03:50:46;2.97;;;2.70;;
8887;SDS011;4480;52.370;9.748;2023-07-13T03:53:14;3.70;;;2.60;;
8887;SDS011;4480;52.370;9.748;2023-07-13T03:55:42;7.00;;;3.40;;
8887;SDS011;4480;52.370;9.748;2023-07-13T03:58:26;4.47;;;2.77;;
8887;SDS011;4480;52.370;9.748;2023-07-13T04:00:55;6.53;;;2.73;;
8887;SDS011;4480;52.370;9.748;2023-07-13T04:03:23;4.30;;;2.80;;
8887;SDS011;4480;52.370;9.748;2023-07-13T04:05:50;3.67;;;2.83;;
8887;SDS011;4480;52.370;9.748;2023-07-13T04:08:17;4.70;;;2.93;;
8887;SDS011;4480;52.370;9.748;2023-07-13T04:11:55;4.87;;;2.90;;
8887;SDS011;4480;52.370;9.748;2023-07-13T04:14:22;4.30;;;2.20;;
8887;SDS011;4480;52.370;9.748;2023-07-13T04:16:49;2.60;;;2.40;;
8887;SDS011;4480;52.370;9.748;2023-07-13T04:19:16;3.80;;;2.73;;
8887;SDS011;4480;52.370;9.748;2023-07-13T04:21:43;3.90;;;2.40;;
8887;SDS011;4480;52.370;9.748;2023-07-13T04:24:10;7.10;;;2.57;;
8887;SDS011;4480;52.370;9.748;2023-07-13T04:26:37;3.77;;;2.10;;
8887;SDS011;4480;52.370;9.748;2023-07-13T04:29:06;2.50;;;2.00;;
8887;SDS011;4480;52.370;9.748;2023-07-13T04:31:33;5.90;;;2.43;;
8887;SDS011;4480;52.370;9.748;2023-07-13T04:34:00;7.83;;;2.43;;
8887;SDS011;4480;52.370;9.748;2023-07-13T04:36:28;3.07;;;2.20;;
8887;SDS011;4480;52.370;9.748;2023-07-13T04:38:54;4.30;;;2.20;;
8887;SDS011;4480;52.370;9.748;2023-07-13T04:41:21;3.07;;;1.83;;
8887;SDS011;4480;52.370;9.748;2023-07-13T04:43:48;4.70;;;2.70;;
8887;SDS011;4480;52.370;9.748;2023-07-13T04:46:16;5.57;;;2.17;;
8887;SDS011;4480;52.370;9.748;2023-07-13T04:48:44;7.03;;;3.23;;
8887;SDS011;4480;52.370;9.748;2023-07-13T04:51:11;5.63;;;1.93;;
8887;SDS011;4480;52.370;9.748;2023-07-13T04:53:37;4.30;;;2.50;;
8887;SDS011;4480;52.370;9.748;2023-07-13T04:56:04;3.70;;;2.40;;
8887;SDS011;4480;52.370;9.748;2023-07-13T04:58:32;4.30;;;2.30;;
8887;SDS011;4480;52.370;9.748;2023-07-13T05:01:00;4.13;;;2.53;;
8887;SDS011;4480;52.370;9.748;2023-07-13T05:03:28;11.10;;;2.10;;
8887;SDS011;4480;52.370;9.748;2023-07-13T05:05:56;11.37;;;2.73;;
8887;SDS011;4480;52.370;9.748;2023-07-13T05:08:24;3.03;;;2.20;;
8887;SDS011;4480;52.370;9.748;2023-07-13T05:10:51;3.90;;;2.00;;
8887;SDS011;4480;52.370;9.748;2023-07-13T05:13:18;3.80;;;2.00;;
8887;SDS011;4480;52.370;9.748;2023-07-13T05:15:47;6.13;;;2.20;;
8887;SDS011;4480;52.370;9.748;2023-07-13T05:18:14;8.83;;;2.30;;
8887;SDS011;4480;52.370;9.748;2023-07-13T05:20:42;3.10;;;1.83;;
8887;SDS011;4480;52.370;9.748;2023-07-13T05:23:08;4.17;;;2.00;;
8887;SDS011;4480;52.370;9.748;2023-07-13T05:25:35;5.93;;;2.20;;
8887;SDS011;4480;52.370;9.748;2023-07-13T05:28:02;4.20;;;1.90;;
8887;SDS011;4480;52.370;9.748;2023-07-13T05:30:29;4.97;;;1.60;;
8887;SDS011;4480;52.370;9.748;2023-07-13T05:32:56;7.00;;;2.83;;
8887;SDS011;4480;52.370;9.748;2023-07-13T05:35:22;4.93;;;2.33;;
8887;SDS011;4480;52.370;9.748;2023-07-13T05:37:51;6.50;;;2.07;;
8887;SDS011;4480;52.370;9.748;2023-07-13T05:40:17;4.30;;;2.37;;
8887;SDS011;4480;52.370;9.748;2023-07-13T05:42:44;4.07;;;2.20;;
8887;SDS011;4480;52.370;9.748;2023-07-13T05:45:11;4.83;;;2.17;;
8887;SDS011;4480;52.370;9.748;2023-07-13T05:47:37;7.20;;;2.20;;
8887;SDS011;4480;52.370;9.748;2023-07-13T05:50:05;5.57;;;2.13;;
8887;SDS011;4480;52.370;9.748;2023-07-13T05:52:32;3.77;;;1.80;;
8887;SDS011;4480;52.370;9.748;2023-07-13T05:55:00;4.53;;;1.80;;
8887;SDS011;4480;52.370;9.748;2023-07-13T05:57:28;6.63;;;2.13;;
8887;SDS011;4480;52.370;9.748;2023-07-13T05:59:55;5.63;;;2.17;;
8887;SDS011;4480;52.370;9.748;2023-07-13T06:02:21;3.33;;;1.83;;
8887;SDS011;4480;52.370;9.748;2023-07-13T06:04:48;5.67;;;2.47;;
8887;SDS011;4480;52.370;9.748;2023-07-13T06:07:15;5.53;;;2.43;;
8887;SDS011;4480;52.370;9.748;2023-07-13T06:09:42;6.33;;;2.40;;
8887;SDS011;4480;52.370;9.748;2023-07-13T06:12:10;6.03;;;2.50;;
8887;SDS011;4480;52.370;9.748;2023-07-13T06:14:37;6.13;;;2.77;;
8887;SDS011;4480;52.370;9.748;2023-07-13T06:17:03;3.60;;;2.37;;
8887;SDS011;4480;52.370;9.748;2023-07-13T06:19:31;4.50;;;1.83;;
8887;SDS011;4480;52.370;9.748;2023-07-13T06:21:58;4.10;;;2.30;;
8887;SDS011;4480;52.370;9.748;2023-07-13T06:24:24;5.47;;;2.50;;
8887;SDS011;4480;52.370;9.748;2023-07-13T06:26:51;2.90;;;1.80;;
8887;SDS011;4480;52.370;9.748;2023-07-13T06:29:20;5.50;;;2.47;;
8887;SDS011;4480;52.370;9.748;2023-07-13T06:31:46;5.60;;;2.40;;
8887;SDS011;4480;52.370;9.748;2023-07-13T06:34:13;6.30;;;2.70;;
8887;SDS011;4480;52.370;9.748;2023-07-13T06:36:40;6.33;;;2.40;;
8887;SDS011;4480;52.370;9.748;2023-07-13T06:39:07;3.07;;;2.27;;
8887;SDS011;4480;52.370;9.748;2023-07-13T06:41:34;6.33;;;2.53;;
8887;SDS011;4480;52.370;9.748;2023-07-13T06:44:00;4.67;;;2.70;;
8887;SDS011;4480;52.370;9.748;2023-07-13T06:46:29;5.67;;;2.30;;
8887;SDS011;4480;52.370;9.748;2023-07-13T06:48:56;7.37;;;2.93;;
8887;SDS011;4480;52.370;9.748;2023-07-13T06:51:23;5.60;;;2.60;;
8887;SDS011;4480;52.370;9.748;2023-07-13T06:53:51;5.30;;;2.37;;
8887;SDS011;4480;52.370;9.748;2023-07-13T06:56:17;7.40;;;3.23;;
8887;SDS011;4480;52.370;9.748;2023-07-13T06:58:44;3.50;;;2.40;;
8887;SDS011;4480;52.370;9.748;2023-07-13T07:01:11;4.80;;;2.30;;
8887;SDS011;4480;52.370;9.748;2023-07-13T07:03:39;4.13;;;2.00;;
8887;SDS011;4480;52.370;9.748;2023-07-13T07:06:09;4.30;;;2.20;;
8887;SDS011;4480;52.370;9.748;2023-07-13T07:08:40;4.43;;;2.20;;
8887;SDS011;4480;52.370;9.748;2023-07-13T07:11:08;8.30;;;2.60;;
8887;SDS011;4480;52.370;9.748;2023-07-13T07:13:36;3.07;;;1.90;;
8887;SDS011;4480;52.370;9.748;2023-07-13T07:16:03;5.53;;;1.93;;
8887;SDS011;4480;52.370;9.748;2023-07-13T07:18:29;4.80;;;1.97;;
8887;SDS011;4480;52.370;9.748;2023-07-13T07:20:58;6.00;;;1.70;;
8887;SDS011;4480;52.370;9.748;2023-07-13T07:23:24;6.50;;;1.97;;
8887;SDS011;4480;52.370;9.748;2023-07-13T07:25:51;7.30;;;1.90;;
8887;SDS011;4480;52.370;9.748;2023-07-13T07:28:18;6.47;;;1.80;;
8887;SDS011;4480;52.370;9.748;2023-07-13T07:30:45;5.70;;;1.90;;
8887;SDS011;4480;52.370;9.748;2023-07-13T07:33:13;2.90;;;2.00;;
8887;SDS011;4480;52.370;9.748;2023-07-13T07:35:41;3.93;;;1.97;;
8887;SDS011;4480;52.370;9.748;2023-07-13T07:38:10;5.23;;;2.10;;
8887;SDS011;4480;52.370;9.748;2023-07-13T07:40:37;8.40;;;2.43;;
8887;SDS011;4480;52.370;9.748;2023-07-13T07:43:04;9.00;;;1.87;;
8887;SDS011;4480;52.370;9.748;2023-07-13T07:45:31;4.40;;;2.20;;
8887;SDS011;4480;52.370;9.748;2023-07-13T07:47:58;3.77;;;1.90;;
8887;SDS011;4480;52.370;9.748;2023-07-13T07:50:24;5.60;;;2.03;;
8887;SDS011;4480;52.370;9.748;2023-07-13T07:52:51;7.70;;;1.70;;
8887;SDS011;4480;52.370;9.748;2023-07-13T07:55:20;4.93;;;1.67;;
8887;SDS011;4480;52.370;9.748;2023-07-13T07:57:46;3.30;;;2.00;;
8887;SDS011;4480;52.370;9.748;2023-07-13T08:00:14;3.90;;;1.90;;
8887;SDS011;4480;52.370;9.748;2023-07-13T08:02:42;4.10;;;1.50;;
8887;SDS011;4480;52.370;9.748;2023-07-13T08:05:09;4.60;;;2.03;;
8887;SDS011;4480;52.370;9.748;2023-07-13T08:07:37;5.10;;;2.40;;
8887;SDS011;4480;52.370;9.748;2023-07-13T08:10:04;3.33;;;1.83;;
8887;SDS011;4480;52.370;9.748;2023-07-13T08:12:34;4.40;;;1.30;;
8887;SDS011;4480;52.370;9.748;2023-07-13T08:15:02;3.30;;;1.50;;
8887;SDS011;4480;52.370;9.748;2023-07-13T08:17:30;4.13;;;2.10;;
8887;SDS011;4480;52.370;9.748;2023-07-13T08:19:57;3.60;;;2.07;;
8887;SDS011;4480;52.370;9.748;2023-07-13T08:22:24;7.27;;;2.00;;
8887;SDS011;4480;52.370;9.748;2023-07-13T08:24:50;4.37;;;2.33;;
8887;SDS011;4480;52.370;9.748;2023-07-13T08:27:21;5.20;;;2.27;;
8887;SDS011;4480;52.370;9.748;2023-07-13T08:29:50;4.30;;;1.63;;
8887;SDS011;4480;52.370;9.748;2023-07-13T08:32:17;3.90;;;1.80;;
8887;SDS011;4480;52.370;9.748;2023-07-13T08:34:44;3.23;;;1.73;;
8887;SDS011;4480;52.370;9.748;2023-07-13T08:37:11;9.73;;;2.33;;
8887;SDS011;4480;52.370;9.748;2023-07-13T08:39:38;6.20;;;1.93;;
8887;SDS011;4480;52.370;9.748;2023-07-13T08:42:05;5.03;;;2.03;;
8887;SDS011;4480;52.370;9.748;2023-07-13T08:44:40;2.70;;;2.03;;
8887;SDS011;4480;52.370;9.748;2023-07-13T08:47:17;5.60;;;2.30;;
8887;SDS011;4480;52.370;9.748;2023-07-13T08:49:49;4.10;;;2.10;;
8887;SDS011;4480;52.370;9.748;2023-07-13T08:52:20;5.77;;;2.30;;
8887;SDS011;4480;52.370;9.748;2023-07-13T08:54:55;5.83;;;2.20;;
8887;SDS011;4480;52.370;9.748;2023-07-13T08:57:24;3.20;;;2.00;;
8887;SDS011;4480;52.370;9.748;2023-07-13T08:59:58;6.57;;;2.23;;
8887;SDS011;4480;52.370;9.748;2023-07-13T09:02:27;7.07;;;1.80;;
8887;SDS011;4480;52.370;9.748;2023-07-13T09:05:04;9.67;;;2.63;;
8887;SDS011;4480;52.370;9.748;2023-07-13T09:07:40;10.80;;;2.67;;
8887;SDS011;4480;52.370;9.748;2023-07-13T09:10:17;6.00;;;2.43;;
8887;SDS011;4480;52.370;9.748;2023-07-13T09:12:51;7.73;;;2.23;;
8887;SDS011;4480;52.370;9.748;2023-07-13T09:15:26;6.30;;;2.17;;
8887;SDS011;4480;52.370;9.748;2023-07-13T09:17:59;4.73;;;2.23;;
8887;SDS011;4480;52.370;9.748;2023-07-13T09:20:32;3.97;;;2.03;;
8887;SDS011;4480;52.370;9.748;2023-07-13T09:23:05;4.17;;;1.90;;
8887;SDS011;4480;52.370;9.748;2023-07-13T09:25:38;7.23;;;2.20;;
8887;SDS011;4480;52.370;9.748;2023-07-13T09:28:09;4.47;;;2.20;;
8887;SDS011;4480;52.370;9.748;2023-07-13T09:30:43;4.97;;;1.80;;
8887;SDS011;4480;52.370;9.748;2023-07-13T09:33:19;3.50;;;1.60;;
8887;SDS011;4480;52.370;9.748;2023-07-13T09:35:47;3.33;;;2.03;;
8887;SDS011;4480;52.370;9.748;2023-07-13T09:38:15;5.90;;;2.13;;
8887;SDS011;4480;52.370;9.748;2023-07-13T09:40:46;2.50;;;1.73;;
8887;SDS011;4480;52.370;9.748;2023-07-13T09:43:24;7.43;;;2.17;;
8887;SDS011;4480;52.370;9.748;2023-07-13T09:45:53;5.90;;;1.43;;
8887;SDS011;4480;52.370;9.748;2023-07-13T09:48:22;5.33;;;1.83;;
8887;SDS011;4480;52.370;9.748;2023-07-13T09:50:51;4.00;;;2.23;;
8887;SDS011;4480;52.370;9.748;2023-07-13T09:53:22;2.50;;;1.80;;
8887;SDS011;4480;52.370;9.748;2023-07-13T09:55:49;5.30;;;1.73;;
8887;SDS011;4480;52.370;9.748;2023-07-13T09:58:18;3.07;;;2.10;;
8887;SDS011;4480;52.370;9.748;2023-07-13T10:00:54;4.33;;;2.17;;
8887;SDS011;4480;52.370;9.748;2023-07-13T10:03:25;4.50;;;2.23;;
8887;SDS011;4480;52.370;9.748;2023-07-13T10:05:53;6.53;;;2.60;;
8887;SDS011;4480;52.370;9.748;2023-07-13T10:08:21;4.27;;;1.90;;
8887;SDS011;4480;52.370;9.748;2023-07-13T10:10:52;5.30;;;2.40;;
8887;SDS011;4480;52.370;9.748;2023-07-13T10:13:26;3.00;;;1.70;;
8887;SDS011;4480;52.370;9.748;2023-07-13T10:15:56;3.60;;;1.77;;
8887;SDS011;4480;52.370;9.748;2023-07-13T10:18:26;6.23;;;1.90;;
8887;SDS011;4480;52.370;9.748;2023-07-13T10:20:58;4.50;;;1.93;;
8887;SDS011;4480;52.370;9.748;2023-07-13T10:23:36;3.10;;;1.90;;
8887;SDS011;4480;52.370;9.748;2023-07-13T10:26:03;3.87;;;2.20;;
8887;SDS011;4480;52.370;9.748;2023-07-13T10:28:35;3.90;;;2.00;;
8887;SDS011;4480;52.370;9.748;2023-07-13T10:31:04;3.47;;;1.90;;
8887;SDS011;4480;52.370;9.748;2023-07-13T10:33:39;4.00;;;1.97;;
8887;SDS011;4480;52.370;9.748;2023-07-13T10:36:10;6.13;;;1.80;;
8887;SDS011;4480;52.370;9.748;2023-07-13T10:38:41;3.40;;;1.77;;
8887;SDS011;4480;52.370;9.748;2023-07-13T10:41:10;5.00;;;2.07;;
8887;SDS011;4480;52.370;9.748;2023-07-13T10:43:41;5.93;;;1.90;;
8887;SDS011;4480;52.370;9.748;2023-07-13T10:46:11;3.07;;;1.77;;
8887;SDS011;4480;52.370;9.748;2023-07-13T10:48:43;3.60;;;2.00;;
8887;SDS011;4480;52.370;9.748;2023-07-13T10:51:14;4.10;;;1.80;;
8887;SDS011;4480;52.370;9.748;2023-07-13T10:53:46;2.27;;;1.80;;
8887;SDS011;4480;52.370;9.748;2023-07-13T10:56:19;3.93;;;2.20;;
8887;SDS011;4480;52.370;9.748;2023-07-13T10:59:00;3.23;;;2.00;;
8887;SDS011;4480;52.370;9.748;2023-07-13T11:01:39;3.20;;;1.97;;
8887;SDS011;4480;52.370;9.748;2023-07-13T11:04:10;4.60;;;1.80;;
8887;SDS011;4480;52.370;9.748;2023-07-13T11:06:40;3.37;;;1.60;;
8887;SDS011;4480;52.370;9.748;2023-07-13T11:09:24;3.20;;;2.03;;
8887;SDS011;4480;52.370;9.748;2023-07-13T11:11:58;3.43;;;2.07;;
8887;SDS011;4480;52.370;9.748;2023-07-13T11:14:28;2.90;;;1.80;;
8887;SDS011;4480;52.370;9.748;2023-07-13T11:16:56;3.73;;;1.87;;
8887;SDS011;4480;52.370;9.748;2023-07-13T11:19:37;3.50;;;1.67;;
8887;SDS011;4480;52.370;9.748;2023-07-13T11:22:10;4.40;;;2.00;;
8887;SDS011;4480;52.370;9.748;2023-07-13T11:24:53;4.80;;;2.10;;
8887;SDS011;4480;52.370;9.748;2023-07-13T11:30:23;3.10;;;1.73;;
8887;SDS011;4480;52.370;9.748;2023-07-13T11:35:59;2.90;;;2.00;;
8887;SDS011;4480;52.370;9.748;2023-07-13T11:38:31;2.20;;;1.63;;
8887;SDS011;4480;52.370;9.748;2023-07-13T11:41:01;3.10;;;1.40;;
8887;SDS011;4480;52.370;9.748;2023-07-13T11:43:32;2.77;;;1.80;;
8887;SDS011;4480;52.370;9.748;2023-07-13T11:46:11;3.63;;;1.67;;
8887;SDS011;4480;52.370;9.748;2023-07-13T11:48:39;5.93;;;1.83;;
8887;SDS011;4480;52.370;9.748;2023-07-13T11:51:09;3.57;;;1.77;;
8887;SDS011;4480;52.370;9.748;2023-07-13T11:53:44;3.37;;;2.13;;
8887;SDS011;4480;52.370;9.748;2023-07-13T11:56:13;2.77;;;1.60;;
8887;SDS011;4480;52.370;9.748;2023-07-13T11:58:40;2.10;;;1.53;;
8887;SDS011;4480;52.370;9.748;2023-07-13T12:01:10;3.13;;;2.30;;
8887;SDS011;4480;52.370;9.748;2023-07-13T12:03:44;3.93;;;1.60;;
8887;SDS011;4480;52.370;9.748;2023-07-13T12:06:21;4.13;;;1.70;;
8887;SDS011;4480;52.370;9.748;2023-07-13T12:08:51;2.10;;;1.50;;
8887;SDS011;4480;52.370;9.748;2023-07-13T12:11:18;2.03;;;1.70;;
8887;SDS011;4480;52.370;9.748;2023-07-13T12:13:46;3.43;;;2.10;;
8887;SDS011;4480;52.370;9.748;2023-07-13T12:16:14;2.80;;;1.77;;
8887;SDS011;4480;52.370;9.748;2023-07-13T12:18:43;4.03;;;1.90;;
8887;SDS011;4480;52.370;9.748;2023-07-13T12:21:13;3.70;;;1.30;;
8887;SDS011;4480;52.370;9.748;2023-07-13T12:23:47;2.57;;;2.00;;
8887;SDS011;4480;52.370;9.748;2023-07-13T12:26:15;6.40;;;2.40;;
8887;SDS011;4480;52.370;9.748;2023-07-13T12:28:46;3.80;;;1.80;;
8887;SDS011;4480;52.370;9.748;2023-07-13T12:31:24;4.77;;;2.23;;
8887;SDS011;4480;52.370;9.748;2023-07-13T12:33:56;3.77;;;2.00;;
8887;SDS011;4480;52.370;9.748;2023-07-13T12:36:24;2.30;;;1.50;;
8887;SDS011;4480;52.370;9.748;2023-07-13T12:38:53;2.90;;;1.53;;
8887;SDS011;4480;52.370;9.748;2023-07-13T12:41:20;1.60;;;1.47;;
8887;SDS011;4480;52.370;9.748;2023-07-13T12:43:48;5.47;;;2.00;;
8887;SDS011;4480;52.370;9.748;2023-07-13T12:46:16;3.30;;;1.70;;
8887;SDS011;4480;52.370;9.748;2023-07-13T12:48:47;3.47;;;1.87;;
8887;SDS011;4480;52.370;9.748;2023-07-13T12:51:15;4.43;;;2.00;;
8887;SDS011;4480;52.370;9.748;2023-07-13T12:53:43;4.20;;;2.00;;
8887;SDS011;4480;52.370;9.748;2023-07-13T12:56:17;2.53;;;1.97;;
8887;SDS011;4480;52.370;9.748;2023-07-13T12:58:48;4.00;;;2.30;;
8887;SDS011;4480;52.370;9.748;2023-07-13T13:01:20;2.80;;;1.90;;
8887;SDS011;4480;52.370;9.748;2023-07-13T13:03:49;4.60;;;2.10;;
8887;SDS011;4480;52.370;9.748;2023-07-13T13:06:21;4.77;;;3.60;;
8887;SDS011;4480;52.370;9.748;2023-07-13T13:08:51;5.60;;;3.07;;
8887;SDS011;4480;52.370;9.748;2023-07-13T13:11:21;6.67;;;2.77;;
8887;SDS011;4480;52.370;9.748;2023-07-13T13:13:49;8.13;;;2.87;;
8887;SDS011;4480;52.370;9.748;2023-07-13T13:16:18;7.13;;;3.43;;
8887;SDS011;4480;52.370;9.748;2023-07-13T13:18:47;8.60;;;2.93;;
8887;SDS011;4480;52.370;9.748;2023-07-13T13:21:14;5.80;;;3.17;;
8887;SDS011;4480;52.370;9.748;2023-07-13T13:23:41;6.30;;;3.10;;
8887;SDS011;4480;52.370;9.748;2023-07-13T13:26:10;4.83;;;2.90;;
8887;SDS011;4480;52.370;9.748;2023-07-13T13:28:39;4.07;;;3.37;;
8887;SDS011;4480;52.370;9.748;2023-07-13T13:31:07;5.73;;;3.17;;
8887;SDS011;4480;52.370;9.748;2023-07-13T13:33:38;5.67;;;3.10;;
8887;SDS011;4480;52.370;9.748;2023-07-13T13:36:12;6.37;;;3.27;;
8887;SDS011;4480;52.370;9.748;2023-07-13T13:38:42;3.97;;;3.30;;
8887;SDS011;4480;52.370;9.748;2023-07-13T13:41:09;6.60;;;3.20;;
8887;SDS011;4480;52.370;9.748;2023-07-13T13:43:39;3.67;;;2.50;;
8887;SDS011;4480;52.370;9.748;2023-07-13T13:46:11;3.10;;;2.50;;
8887;SDS011;4480;52.370;9.748;2023-07-13T13:48:41;4.20;;;2.63;;
8887;SDS011;4480;52.370;9.748;2023-07-13T13:51:12;4.33;;;2.67;;
8887;SDS011;4480;52.370;9.748;2023-07-13T13:53:41;8.33;;;2.83;;
8887;SDS011;4480;52.370;9.748;2023-07-13T13:56:08;3.73;;;2.10;;
8887;SDS011;4480;52.370;9.748;2023-07-13T13:58:35;4.10;;;2.53;;
8887;SDS011;4480;52.370;9.748;2023-07-13T14:01:03;6.00;;;2.80;;
8887;SDS011;4480;52.370;9.748;2023-07-13T14:03:33;5.07;;;3.10;;
8887;SDS011;4480;52.370;9.748;2023-07-13T14:06:00;4.27;;;3.00;;
8887;SDS011;4480;52.370;9.748;2023-07-13T14:08:26;4.73;;;3.00;;
8887;SDS011;4480;52.370;9.748;2023-07-13T14:10:54;3.60;;;3.03;;
8887;SDS011;4480;52.370;9.748;2023-07-13T14:13:24;4.30;;;2.77;;
8887;SDS011;4480;52.370;9.748;2023-07-13T14:15:53;9.97;;;3.50;;
8887;SDS011;4480;52.370;9.748;2023-07-13T14:18:22;6.83;;;3.33;;
8887;SDS011;4480;52.370;9.748;2023-07-13T14:20:49;3.90;;;2.83;;
8887;SDS011;4480;52.370;9.748;2023-07-13T14:23:17;5.00;;;3.77;;
8887;SDS011;4480;52.370;9.748;2023-07-13T14:25:44;4.83;;;2.43;;
8887;SDS011;4480;52.370;9.748;2023-07-13T14:30:58;5.30;;;3.20;;
8887;SDS011;4480;52.370;9.748;2023-07-13T14:33:26;4.70;;;3.00;;
8887;SDS011;4480;52.370;9.748;2023-07-13T14:35:52;3.57;;;2.83;;
8887;SDS011;4480;52.370;9.748;2023-07-13T14:38:20;4.03;;;2.70;;
8887;SDS011;4480;52.370;9.748;2023-07-13T14:40:47;3.07;;;2.87;;
8887;SDS011;4480;52.370;9.748;2023-07-13T14:43:14;2.37;;;1.70;;
8887;SDS011;4480;52.370;9.748;2023-07-13T14:45:42;2.13;;;1.53;;
8887;SDS011;4480;52.370;9.748;2023-07-13T14:48:14;1.93;;;1.73;;
8887;SDS011;4480;52.370;9.748;2023-07-13T14:50:46;2.30;;;1.73;;
8887;SDS011;4480;52.370;9.748;2023-07-13T14:53:13;2.70;;;2.03;;
8887;SDS011;4480;52.370;9.748;2023-07-13T14:55:40;2.33;;;2.13;;
8887;SDS011;4480;52.370;9.748;2023-07-13T14:58:07;3.43;;;2.27;;
8887;SDS011;4480;52.370;9.748;2023-07-13T15:00:35;2.70;;;2.40;;
8887;SDS011;4480;52.370;9.748;2023-07-13T15:03:02;4.23;;;2.83;;
8887;SDS011;4480;52.370;9.748;2023-07-13T15:05:31;3.97;;;2.90;;
8887;SDS011;4480;52.370;9.748;2023-07-13T15:08:01;4.27;;;3.40;;
8887;SDS011;4480;52.370;9.748;2023-07-13T15:10:30;3.17;;;2.87;;
8887;SDS011;4480;52.370;9.748;2023-07-13T15:12:58;3.10;;;2.80;;
8887;SDS011;4480;52.370;9.748;2023-07-13T15:15:28;2.57;;;2.37;;
8887;SDS011;4480;52.370;9.748;2023-07-13T15:17:56;3.37;;;2.27;;
8887;SDS011;4480;52.370;9.748;2023-07-13T15:20:25;3.90;;;3.07;;
8887;SDS011;4480;52.370;9.748;2023-07-13T15:22:54;4.43;;;2.57;;
8887;SDS011;4480;52.370;9.748;2023-07-13T15:25:23;5.67;;;2.93;;
8887;SDS011;4480;52.370;9.748;2023-07-13T15:27:51;3.80;;;2.60;;
8887;SDS011;4480;52.370;9.748;2023-07-13T15:30:18;3.57;;;2.10;;
8887;SDS011;4480;52.370;9.748;2023-07-13T15:32:45;4.37;;;2.30;;
8887;SDS011;4480;52.370;9.748;2023-07-13T15:35:13;3.67;;;2.63;;
8887;SDS011;4480;52.370;9.748;2023-07-13T15:37:41;2.43;;;2.00;;